Current Weather

Lewis University

Chicago/Romeoville, Illinois (KLOT)

Report from: Monday, August 1, 2022 5:35 PM CDT
Current time: Wednesday, August 17, 2022 8:38 PM CDT

Nearby weather
Weather history
Weather forecast

Temperature28.6°C (83.5°F)
Heat index30.3°C (86.6°F)
Dew point19.4°C (66.9°F)
Winds 14 kts (7.2 m/s, 16.1 mph) West-Northwest (290°)
Wind gusts 18 kts (9.3 m/s, 20.7 mph)
Clouds Scattered clouds 5,000 ft. (1,524 m)
Altimeter29.87 in.Hg (1012 mB)
Relative humidity58 %
Density altitude1,928 ft. (588 m)
Remarks Fully automated report
Automated weather observing station with precipitation discriminator
Present weather sensor not operating
Flight conditions Unknown Meteorological Conditions
Raw dataKLOT 012235Z AUTO 29014G18KT SCT050 29/19 A2987 RMK AO2 T02860194 PWINO
An error has occurred. This application may no longer respond until reloaded. Reload 🗙